createdAt,value
2022-11-07T00:00:17.710Z,9.83
2022-11-07T00:02:20.477Z,9.89
2022-11-07T00:04:23.265Z,9.98
2022-11-07T00:06:26.008Z,8.20
2022-11-07T00:08:31.796Z,9.97
2022-11-07T00:10:34.655Z,9.94
2022-11-07T00:12:38.884Z,10.02
2022-11-07T00:14:41.699Z,9.98
2022-11-07T00:16:45.406Z,10.07
2022-11-07T00:18:48.169Z,10.03
2022-11-07T00:20:50.959Z,10.07
2022-11-07T00:22:53.712Z,9.94
2022-11-07T00:24:56.514Z,9.94
2022-11-07T00:26:59.406Z,8.22
2022-11-07T00:29:04.287Z,10.06
2022-11-07T00:31:08.661Z,8.84
2022-11-07T00:33:11.835Z,10.08
2022-11-07T00:35:14.823Z,10.07
2022-11-07T00:37:17.574Z,10.13
2022-11-07T00:39:20.319Z,8.92
2022-11-07T00:41:23.472Z,7.06
2022-11-07T00:43:27.090Z,10.08
2022-11-07T00:45:31.272Z,9.29
2022-11-07T00:47:34.120Z,10.02
2022-11-07T00:49:36.950Z,9.98
2022-11-07T00:51:39.711Z,4.68
2022-11-07T00:53:43.154Z,8.76
2022-11-07T00:55:45.960Z,2.32
2022-11-07T00:57:48.741Z,10.03
2022-11-07T00:59:51.494Z,9.12
2022-11-07T01:01:55.704Z,8.67
2022-11-07T01:04:16.388Z,10.10
2022-11-07T01:06:19.175Z,10.08
2022-11-07T01:08:21.923Z,10.18
2022-11-07T01:10:24.695Z,9.98
2022-11-07T01:12:27.611Z,10.04
2022-11-07T01:14:30.842Z,9.75
2022-11-07T01:16:35.305Z,10.23
2022-11-07T01:18:39.794Z,10.24
2022-11-07T01:20:42.761Z,9.44
2022-11-07T01:22:45.536Z,10.17
2022-11-07T01:24:48.364Z,9.50
2022-11-07T01:26:51.785Z,10.20
2022-11-07T01:28:54.632Z,10.17
2022-11-07T01:30:57.482Z,9.34
2022-11-07T01:33:00.358Z,10.22
2022-11-07T01:35:04.959Z,9.66
2022-11-07T01:37:07.834Z,10.29
2022-11-07T01:39:10.643Z,10.32
2022-11-07T01:41:22.226Z,10.42
2022-11-07T01:43:42.142Z,10.39
2022-11-07T01:45:44.989Z,10.41
2022-11-07T01:47:49.406Z,10.35
2022-11-07T01:49:54.288Z,10.45
2022-11-07T01:52:03.951Z,10.47
2022-11-07T01:54:07.990Z,8.47
2022-11-07T01:56:15.263Z,10.47
2022-11-07T01:58:18.020Z,10.47
2022-11-07T02:00:23.177Z,10.49
2022-11-07T02:02:28.006Z,10.32
2022-11-07T02:04:32.280Z,10.40
2022-11-07T02:06:43.024Z,10.45
2022-11-07T02:08:49.636Z,9.33
2022-11-07T02:10:54.032Z,8.34
2022-11-07T02:12:59.863Z,10.52
2022-11-07T02:15:03.120Z,10.52
2022-11-07T02:17:06.483Z,9.09
2022-11-07T02:19:14.416Z,10.57
2022-11-07T02:21:31.083Z,10.63
2022-11-07T02:23:41.814Z,10.50
2022-11-07T02:25:46.271Z,8.13
2022-11-07T02:27:52.624Z,10.41
2022-11-07T02:29:58.558Z,10.59
2022-11-07T02:32:02.602Z,8.88
2022-11-07T02:34:05.344Z,10.63
2022-11-07T02:36:13.784Z,10.34
2022-11-07T02:38:21.394Z,10.28
2022-11-07T02:40:24.823Z,8.65
2022-11-07T02:42:43.229Z,7.29
2022-11-07T02:44:47.228Z,10.45
2022-11-07T02:46:50.389Z,8.23
2022-11-07T02:48:56.469Z,10.61
2022-11-07T02:50:59.644Z,10.21
2022-11-07T02:53:02.474Z,5.43
2022-11-07T02:55:06.187Z,8.32
2022-11-07T02:57:09.374Z,10.46
2022-11-07T02:59:13.546Z,10.48
2022-11-07T03:01:16.879Z,10.42
2022-11-07T03:03:19.712Z,10.43
2022-11-07T03:05:22.531Z,8.55
2022-11-07T03:07:25.493Z,9.70
2022-11-07T03:09:28.286Z,9.90
2022-11-07T03:11:31.049Z,9.58
2022-11-07T03:13:34.419Z,10.27
2022-11-07T03:15:38.576Z,9.33
2022-11-07T03:17:41.477Z,10.18
2022-11-07T03:19:44.226Z,10.18
2022-11-07T03:21:46.966Z,10.18
2022-11-07T03:23:49.743Z,6.91
2022-11-07T03:25:52.506Z,10.20
2022-11-07T03:27:55.212Z,9.26
2022-11-07T03:29:58.000Z,8.00
2022-11-07T03:32:02.143Z,10.13
2022-11-07T03:34:05.186Z,8.50
2022-11-07T03:36:08.377Z,7.31
2022-11-07T03:38:11.174Z,7.79
2022-11-07T03:40:14.082Z,9.77
2022-11-07T03:42:16.868Z,9.89
2022-11-07T03:44:19.648Z,8.88
2022-11-07T03:46:22.461Z,9.94
2022-11-07T03:48:26.553Z,9.97
2022-11-07T03:50:29.355Z,9.96
2022-11-07T03:52:32.146Z,9.91
2022-11-07T03:54:34.959Z,9.85
2022-11-07T03:56:37.768Z,9.82
2022-11-07T03:58:40.713Z,9.85
2022-11-07T04:00:43.424Z,9.88
2022-11-07T04:02:46.412Z,9.85
2022-11-07T04:04:50.789Z,7.09
2022-11-07T04:06:53.582Z,9.88
2022-11-07T04:08:56.271Z,9.88
2022-11-07T04:10:59.038Z,9.88
2022-11-07T04:13:19.558Z,9.88
2022-11-07T04:15:39.930Z,9.92
2022-11-07T04:17:42.755Z,9.90
2022-11-07T04:19:45.789Z,8.15
2022-11-07T04:21:49.934Z,9.89
2022-11-07T04:23:52.742Z,9.92
2022-11-07T04:26:13.149Z,9.94
2022-11-07T04:28:17.831Z,9.94
2022-11-07T04:30:23.581Z,9.95
2022-11-07T04:32:26.698Z,9.95
2022-11-07T04:34:29.470Z,9.97
2022-11-07T04:36:32.682Z,9.98
2022-11-07T04:38:36.835Z,4.41
2022-11-07T04:40:39.620Z,2.51
2022-11-07T04:42:42.539Z,9.54
2022-11-07T04:44:45.337Z,2.23
2022-11-07T04:46:48.117Z,10.01
2022-11-07T04:48:50.880Z,9.07
2022-11-07T04:50:54.121Z,9.28
2022-11-07T04:52:56.927Z,8.00
2022-11-07T04:55:01.100Z,8.76
2022-11-07T04:57:03.866Z,9.94
2022-11-07T04:59:06.870Z,9.91
2022-11-07T05:01:09.684Z,9.89
2022-11-07T05:03:12.761Z,9.87
2022-11-07T05:05:16.515Z,9.86
2022-11-07T05:07:20.172Z,8.72
2022-11-07T05:09:22.983Z,9.86
2022-11-07T05:11:28.048Z,9.87
2022-11-07T05:13:30.815Z,9.84
2022-11-07T05:15:33.562Z,7.52
2022-11-07T05:17:36.356Z,8.01
2022-11-07T05:19:39.105Z,9.12
2022-11-07T05:21:41.849Z,9.79
2022-11-07T05:23:43.602Z,9.81
2022-11-07T05:25:48.635Z,9.78
2022-11-07T05:27:57.262Z,9.81
2022-11-07T05:29:59.986Z,9.83
2022-11-07T05:32:03.089Z,9.13
2022-11-07T05:34:07.104Z,9.86
2022-11-07T05:36:14.868Z,9.15
2022-11-07T05:38:17.654Z,9.89
2022-11-07T05:40:20.396Z,6.28
2022-11-07T05:42:23.084Z,9.94
2022-11-07T05:44:27.157Z,8.53
2022-11-07T05:46:29.896Z,9.11
2022-11-07T05:48:32.645Z,10.00
2022-11-07T05:50:35.963Z,10.00
2022-11-07T05:52:38.660Z,7.42
2022-11-07T05:54:41.368Z,9.96
2022-11-07T05:56:44.548Z,8.50
2022-11-07T05:58:47.227Z,10.04
2022-11-07T06:00:51.451Z,10.08
2022-11-07T06:03:00.383Z,10.13
2022-11-07T06:05:03.349Z,10.14
2022-11-07T06:07:06.008Z,10.21
2022-11-07T06:09:08.951Z,10.18
2022-11-07T06:11:11.671Z,10.18
2022-11-07T06:13:16.830Z,10.22
2022-11-07T06:15:20.054Z,10.25
2022-11-07T06:17:24.105Z,10.25
2022-11-07T06:19:26.777Z,10.24
2022-11-07T06:21:29.538Z,8.38
2022-11-07T06:23:32.726Z,5.80
2022-11-07T06:25:37.001Z,10.21
2022-11-07T06:27:39.725Z,10.23
2022-11-07T06:29:42.405Z,10.15
2022-11-07T06:31:45.277Z,10.12
2022-11-07T06:33:52.161Z,9.92
2022-11-07T06:35:54.876Z,9.79
2022-11-07T06:37:57.801Z,9.68
2022-11-07T06:40:00.501Z,9.77
2022-11-07T06:42:03.197Z,9.91
2022-11-07T06:44:06.153Z,9.91
2022-11-07T06:46:11.692Z,9.83
2022-11-07T06:48:15.185Z,9.94
2022-11-07T06:50:19.385Z,9.99
2022-11-07T06:52:22.074Z,10.08
2022-11-07T06:54:24.787Z,10.08
2022-11-07T06:56:27.633Z,10.09
2022-11-07T06:58:30.832Z,10.10
2022-11-07T07:00:35.538Z,8.51
2022-11-07T07:02:57.487Z,10.03
2022-11-07T07:05:00.974Z,9.91
2022-11-07T07:07:05.105Z,9.93
2022-11-07T07:09:07.970Z,9.54
2022-11-07T07:11:12.419Z,9.92
2022-11-07T07:13:15.702Z,10.00
2022-11-07T07:15:18.996Z,10.09
2022-11-07T07:17:21.699Z,9.92
2022-11-07T07:19:24.420Z,9.86
2022-11-07T07:21:27.473Z,7.09
2022-11-07T07:23:33.090Z,9.32
2022-11-07T07:25:35.845Z,10.10
2022-11-07T07:27:38.592Z,10.18
2022-11-07T07:29:41.379Z,7.52
2022-11-07T07:31:44.103Z,10.35
2022-11-07T07:33:48.569Z,10.30
2022-11-07T07:35:51.301Z,10.39
2022-11-07T07:37:54.348Z,6.18
2022-11-07T07:39:59.598Z,10.15
2022-11-07T07:42:02.355Z,10.12
2022-11-07T07:44:07.770Z,10.32
2022-11-07T07:46:15.819Z,9.76
2022-11-07T07:48:18.567Z,10.36
2022-11-07T07:50:21.479Z,8.41
2022-11-07T07:52:24.198Z,10.61
2022-11-07T07:54:26.982Z,10.72
2022-11-07T07:56:31.223Z,10.82
2022-11-07T07:58:34.650Z,10.89
2022-11-07T08:00:37.838Z,10.45
2022-11-07T08:02:43.382Z,10.93
2022-11-07T08:04:46.257Z,10.99
2022-11-07T08:06:49.032Z,11.03
2022-11-07T08:08:51.764Z,10.96
2022-11-07T08:10:55.145Z,10.97
2022-11-07T08:12:59.282Z,11.04
2022-11-07T08:15:02.065Z,7.62
2022-11-07T08:17:04.869Z,11.16
2022-11-07T08:19:07.635Z,11.27
2022-11-07T08:21:10.531Z,9.26
2022-11-07T08:23:16.794Z,11.43
2022-11-07T08:25:19.813Z,9.53
2022-11-07T08:27:22.501Z,11.37
2022-11-07T08:29:26.881Z,11.36
2022-11-07T08:31:29.645Z,11.43
2022-11-07T08:33:33.217Z,7.76
2022-11-07T08:35:42.080Z,11.45
2022-11-07T08:37:45.393Z,11.53
2022-11-07T08:39:48.122Z,11.65
2022-11-07T08:41:50.823Z,11.66
2022-11-07T08:43:53.516Z,11.79
2022-11-07T08:45:57.844Z,11.83
2022-11-07T08:48:01.073Z,11.90
2022-11-07T08:50:03.822Z,11.83
2022-11-07T08:52:06.542Z,11.95
2022-11-07T08:54:09.240Z,11.92
2022-11-07T08:56:12.209Z,12.10
2022-11-07T08:58:15.868Z,12.22
2022-11-07T09:00:19.182Z,12.33
2022-11-07T09:04:46.011Z,11.79
2022-11-07T09:06:48.781Z,12.45
2022-11-07T09:08:51.599Z,12.54
2022-11-07T09:10:54.325Z,10.76
2022-11-07T09:12:57.061Z,12.48
2022-11-07T09:14:59.777Z,12.28
2022-11-07T09:17:02.696Z,12.52
2022-11-07T09:19:06.750Z,12.64
2022-11-07T09:21:09.496Z,12.37
2022-11-07T09:23:12.214Z,12.72
2022-11-07T09:25:15.108Z,12.80
2022-11-07T09:27:17.817Z,12.85
2022-11-07T09:29:20.638Z,12.93
2022-11-07T09:31:23.715Z,12.80
2022-11-07T09:33:26.866Z,12.95
2022-11-07T09:35:31.096Z,12.22
2022-11-07T09:37:33.813Z,12.84
2022-11-07T09:39:36.568Z,12.90
2022-11-07T09:41:51.840Z,13.00
2022-11-07T09:44:37.468Z,12.66
2022-11-07T09:46:56.168Z,12.73
2022-11-07T09:49:05.520Z,12.52
2022-11-07T09:51:15.611Z,12.69
2022-11-07T09:53:26.966Z,12.83
2022-11-07T09:55:33.178Z,12.86
2022-11-07T09:57:37.436Z,12.99
2022-11-07T09:59:44.817Z,13.01
2022-11-07T10:01:47.682Z,12.78
2022-11-07T10:04:22.808Z,12.80
2022-11-07T10:06:24.578Z,12.67
2022-11-07T10:08:35.238Z,13.01
2022-11-07T10:10:44.513Z,12.93
2022-11-07T10:13:15.112Z,12.74
2022-11-07T10:15:27.157Z,12.94
2022-11-07T10:17:42.817Z,12.79
2022-11-07T10:20:04.404Z,12.80
2022-11-07T10:22:24.877Z,13.10
2022-11-07T10:24:40.133Z,12.58
2022-11-07T10:26:45.148Z,12.65
2022-11-07T10:28:54.308Z,12.51
2022-11-07T10:30:59.969Z,12.84
2022-11-07T10:33:08.109Z,13.11
2022-11-07T10:35:20.631Z,13.46
2022-11-07T10:37:24.840Z,13.44
2022-11-07T10:39:30.841Z,13.33
2022-11-07T10:41:34.330Z,13.62
2022-11-07T10:43:40.387Z,13.86
2022-11-07T10:45:43.285Z,13.90
2022-11-07T10:47:58.531Z,13.85
2022-11-07T10:50:03.094Z,13.30
2022-11-07T10:52:10.625Z,13.34
2022-11-07T10:54:22.575Z,13.56
2022-11-07T10:56:25.268Z,12.87
2022-11-07T10:58:29.859Z,13.91
2022-11-07T11:00:34.607Z,13.73
2022-11-07T11:02:48.026Z,13.96
2022-11-07T11:04:54.013Z,12.19
2022-11-07T11:07:03.186Z,14.25
2022-11-07T11:09:14.079Z,14.36
2022-11-07T11:11:28.148Z,14.24
2022-11-07T11:13:32.558Z,11.20
2022-11-07T11:15:46.064Z,14.12
2022-11-07T11:17:59.595Z,13.89
2022-11-07T11:20:02.613Z,14.37
2022-11-07T11:22:16.314Z,14.58
2022-11-07T11:24:27.650Z,13.24
2022-11-07T11:26:34.542Z,14.63
2022-11-07T11:28:43.358Z,14.28
2022-11-07T11:30:53.993Z,13.72
2022-11-07T11:33:04.339Z,14.16
2022-11-07T11:35:18.850Z,12.54
2022-11-07T11:37:23.821Z,14.50
2022-11-07T11:39:31.808Z,14.37
2022-11-07T11:41:44.119Z,12.28
2022-11-07T11:43:51.544Z,11.72
2022-11-07T11:46:06.873Z,14.12
2022-11-07T11:48:20.026Z,14.38
2022-11-07T11:50:28.709Z,13.54
2022-11-07T11:52:32.733Z,14.19
2022-11-07T11:54:36.004Z,13.84
2022-11-07T11:56:52.666Z,13.63
2022-11-07T11:59:12.462Z,14.29
2022-11-07T12:01:28.209Z,14.05
2022-11-07T12:03:56.849Z,14.96
2022-11-07T12:06:22.794Z,15.03
2022-11-07T12:08:39.503Z,15.49
2022-11-07T12:10:50.984Z,15.84
2022-11-07T12:13:04.844Z,15.67
2022-11-07T12:15:22.678Z,16.34
2022-11-07T12:17:32.719Z,16.65
2022-11-07T12:19:43.701Z,17.27
2022-11-07T12:21:52.378Z,16.26
2022-11-07T12:24:06.480Z,16.86
2022-11-07T12:26:15.550Z,17.20
2022-11-07T12:28:34.102Z,17.20
2022-11-07T12:30:48.055Z,17.49
2022-11-07T12:33:08.004Z,17.11
2022-11-07T12:35:24.250Z,15.96
2022-11-07T12:37:43.735Z,15.67
2022-11-07T12:40:04.565Z,16.64
2022-11-07T12:42:13.706Z,16.84
2022-11-07T12:44:45.237Z,17.01
2022-11-07T12:46:53.827Z,17.53
2022-11-07T12:49:11.809Z,17.50
2022-11-07T12:51:25.944Z,17.82
2022-11-07T12:53:36.343Z,12.96
2022-11-07T12:55:43.657Z,17.13
2022-11-07T12:57:48.564Z,15.09
2022-11-07T12:59:58.619Z,13.93
2022-11-07T13:02:06.913Z,16.85
2022-11-07T13:04:16.250Z,16.74
2022-11-07T13:06:27.538Z,16.54
2022-11-07T13:08:37.423Z,16.79
2022-11-07T13:10:49.568Z,17.13
2022-11-07T13:12:57.904Z,17.51
2022-11-07T13:15:04.909Z,14.78
2022-11-07T13:17:17.003Z,17.53
2022-11-07T13:19:33.416Z,18.07
2022-11-07T13:21:41.932Z,17.85
2022-11-07T13:23:44.913Z,17.81
2022-11-07T13:25:59.090Z,17.51
2022-11-07T13:28:08.378Z,13.54
2022-11-07T13:30:20.089Z,15.90
2022-11-07T13:32:22.881Z,16.23
2022-11-07T13:34:28.085Z,16.19
2022-11-07T13:36:37.593Z,16.31
2022-11-07T13:38:48.342Z,16.25
2022-11-07T13:40:53.224Z,16.33
2022-11-07T13:42:59.578Z,16.42
2022-11-07T13:45:19.565Z,16.16
2022-11-07T13:47:31.758Z,16.36
2022-11-07T13:49:44.039Z,16.04
2022-11-07T13:51:49.011Z,16.00
2022-11-07T13:54:02.486Z,15.89
2022-11-07T13:56:15.861Z,15.96
2022-11-07T13:58:20.486Z,15.82
2022-11-07T14:00:23.518Z,14.85
2022-11-07T14:02:29.434Z,15.82
2022-11-07T14:04:40.494Z,14.48
2022-11-07T14:06:58.471Z,15.66
2022-11-07T14:09:01.282Z,15.69
2022-11-07T14:11:04.776Z,13.34
2022-11-07T14:13:11.774Z,15.82
2022-11-07T14:15:16.899Z,15.47
2022-11-07T14:17:21.643Z,15.77
2022-11-07T14:19:28.272Z,15.17
2022-11-07T14:21:33.215Z,15.65
2022-11-07T14:23:36.612Z,15.59
2022-11-07T14:25:39.370Z,13.52
2022-11-07T14:27:46.843Z,15.38
2022-11-07T14:29:53.335Z,15.49
2022-11-07T14:32:00.034Z,13.87
2022-11-07T14:34:04.971Z,15.47
2022-11-07T14:36:13.192Z,15.39
2022-11-07T14:38:22.267Z,15.31
2022-11-07T14:40:25.865Z,15.18
2022-11-07T14:42:29.891Z,15.13
2022-11-07T14:47:00.281Z,15.02
2022-11-07T14:49:03.117Z,15.04
2022-11-07T14:51:06.925Z,15.07
2022-11-07T14:53:17.331Z,14.89
2022-11-07T14:55:28.545Z,14.87
2022-11-07T14:57:33.505Z,12.78
2022-11-07T14:59:36.370Z,14.95
2022-11-07T15:01:39.289Z,14.12
2022-11-07T15:03:53.051Z,12.74
2022-11-07T15:05:55.872Z,14.33
2022-11-07T15:08:00.580Z,13.56
2022-11-07T15:10:21.974Z,13.70
2022-11-07T15:12:29.364Z,14.49
2022-11-07T15:14:34.502Z,14.48
2022-11-07T15:16:39.893Z,14.48
2022-11-07T15:18:44.946Z,14.45
2022-11-07T15:20:59.221Z,12.11
2022-11-07T15:23:03.934Z,11.27
2022-11-07T15:25:29.191Z,14.38
2022-11-07T15:27:36.129Z,14.35
2022-11-07T15:29:38.892Z,14.29
2022-11-07T15:31:48.348Z,14.27
2022-11-07T15:33:51.497Z,14.17
2022-11-07T15:35:58.592Z,11.08
2022-11-07T15:38:02.844Z,14.08
2022-11-07T15:40:15.111Z,13.99
2022-11-07T15:42:19.793Z,13.85
2022-11-07T15:44:22.530Z,13.79
2022-11-07T15:46:35.606Z,13.66
2022-11-07T15:48:41.155Z,8.63
2022-11-07T15:50:45.288Z,11.81
2022-11-07T15:52:49.423Z,13.59
2022-11-07T15:54:52.207Z,13.55
2022-11-07T15:56:59.879Z,13.54
2022-11-07T15:59:03.895Z,13.49
2022-11-07T16:01:06.858Z,13.45
2022-11-07T16:03:15.067Z,13.45
2022-11-07T16:05:19.177Z,13.45
2022-11-07T16:07:22.049Z,11.05
2022-11-07T16:09:33.301Z,13.32
2022-11-07T16:11:35.970Z,13.42
2022-11-07T16:13:39.286Z,13.34
2022-11-07T16:15:46.535Z,13.31
2022-11-07T16:17:49.557Z,13.07
2022-11-07T16:19:53.648Z,13.03
2022-11-07T16:21:57.969Z,12.98
2022-11-07T16:24:00.643Z,12.94
2022-11-07T16:26:03.326Z,12.93
2022-11-07T16:28:06.782Z,12.90
2022-11-07T16:30:15.112Z,12.72
2022-11-07T16:32:19.155Z,12.48
2022-11-07T16:34:21.841Z,12.51
2022-11-07T16:36:28.469Z,12.40
2022-11-07T16:38:35.384Z,11.22
2022-11-07T16:40:38.330Z,11.70
2022-11-07T16:42:41.001Z,11.58
2022-11-07T16:44:43.682Z,10.34
2022-11-07T16:46:46.773Z,12.45
2022-11-07T16:48:54.810Z,8.08
2022-11-07T16:50:58.347Z,11.02
2022-11-07T16:53:01.612Z,12.36
2022-11-07T16:55:04.540Z,12.36
2022-11-07T16:57:12.750Z,12.33
2022-11-07T16:59:19.278Z,10.24
2022-11-07T17:01:23.618Z,12.20
2022-11-07T17:03:27.276Z,12.15
2022-11-07T17:05:31.329Z,12.13
2022-11-07T17:07:34.012Z,11.43
2022-11-07T17:09:36.680Z,6.59
2022-11-07T17:11:39.801Z,11.99
2022-11-07T17:13:42.877Z,12.00
2022-11-07T17:15:45.791Z,10.34
2022-11-07T17:17:48.538Z,11.98
2022-11-07T17:19:51.432Z,11.98
2022-11-07T17:21:55.518Z,11.85
2022-11-07T17:24:00.368Z,11.69
2022-11-07T17:26:03.853Z,12.08
2022-11-07T17:28:06.629Z,12.06
2022-11-07T17:30:17.263Z,12.02
2022-11-07T17:32:20.656Z,11.91
2022-11-07T17:34:23.372Z,11.97
2022-11-07T17:36:35.290Z,12.00
2022-11-07T17:38:41.061Z,11.96
2022-11-07T17:40:43.961Z,11.94
2022-11-07T17:42:46.701Z,11.88
2022-11-07T17:44:49.416Z,10.99
2022-11-07T17:46:52.144Z,10.40
2022-11-07T17:48:55.704Z,11.82
2022-11-07T17:50:58.397Z,11.84
2022-11-07T17:53:01.171Z,10.83
2022-11-07T17:55:05.903Z,11.84
2022-11-07T17:57:09.844Z,11.81
2022-11-07T17:59:15.203Z,11.78
2022-11-07T18:01:20.916Z,11.70
2022-11-07T18:03:23.720Z,10.42
2022-11-07T18:05:32.900Z,9.55
2022-11-07T18:07:36.000Z,11.35
2022-11-07T18:09:38.730Z,11.50
2022-11-07T18:11:43.276Z,11.58
2022-11-07T18:13:46.058Z,11.57
2022-11-07T18:15:48.774Z,11.23
2022-11-07T18:17:51.555Z,11.62
2022-11-07T18:19:54.290Z,11.61
2022-11-07T18:21:56.948Z,11.55
2022-11-07T18:23:59.997Z,11.53
2022-11-07T18:26:04.525Z,7.74
2022-11-07T18:28:08.575Z,4.23
2022-11-07T18:30:12.615Z,8.29
2022-11-07T18:32:15.382Z,11.40
2022-11-07T18:34:18.286Z,11.38
2022-11-07T18:36:22.293Z,11.00
2022-11-07T18:38:25.317Z,9.34
2022-11-07T18:40:28.139Z,8.73
2022-11-07T18:42:31.036Z,11.20
2022-11-07T18:44:35.188Z,10.03
2022-11-07T18:46:37.950Z,11.21
2022-11-07T18:48:40.873Z,10.25
2022-11-07T18:50:43.702Z,11.11
2022-11-07T18:52:46.466Z,9.41
2022-11-07T18:54:49.208Z,11.07
2022-11-07T18:56:51.959Z,9.93
2022-11-07T18:58:56.213Z,10.95
2022-11-07T19:01:04.896Z,10.90
2022-11-07T19:03:07.758Z,10.86
2022-11-07T19:05:10.673Z,8.23
2022-11-07T19:07:13.458Z,7.38
2022-11-07T19:09:16.189Z,10.62
2022-11-07T19:11:21.057Z,6.18
2022-11-07T19:13:23.983Z,10.60
2022-11-07T19:15:29.714Z,7.99
2022-11-07T19:17:34.053Z,10.51
2022-11-07T19:19:36.864Z,10.49
2022-11-07T19:21:43.581Z,10.47
2022-11-07T19:23:46.593Z,10.45
2022-11-07T19:25:50.128Z,10.45
2022-11-07T19:27:52.966Z,10.39
2022-11-07T19:29:55.730Z,10.33
2022-11-07T19:31:58.556Z,10.28
2022-11-07T19:34:02.730Z,9.14
2022-11-07T19:36:08.351Z,10.12
2022-11-07T19:38:13.577Z,9.98
2022-11-07T19:40:16.355Z,4.97
2022-11-07T19:42:19.186Z,9.96
2022-11-07T19:44:21.962Z,9.95
2022-11-07T19:46:24.748Z,9.96
2022-11-07T19:48:27.541Z,9.93
2022-11-07T19:50:31.731Z,9.91
2022-11-07T19:52:34.607Z,8.57
2022-11-07T19:54:37.430Z,9.84
2022-11-07T19:56:40.253Z,9.13
2022-11-07T19:58:43.678Z,9.81
2022-11-07T20:00:46.522Z,9.72
2022-11-07T20:02:50.131Z,8.34
2022-11-07T20:04:53.322Z,9.73
2022-11-07T20:06:57.420Z,9.72
2022-11-07T20:09:01.379Z,9.67
2022-11-07T20:11:04.318Z,9.66
2022-11-07T20:13:07.068Z,9.64
2022-11-07T20:15:11.477Z,7.32
2022-11-07T20:17:14.194Z,9.60
2022-11-07T20:19:16.994Z,9.58
2022-11-07T20:21:22.556Z,9.57
2022-11-07T20:23:26.590Z,9.12
2022-11-07T20:25:29.349Z,9.53
2022-11-07T20:27:32.848Z,3.66
2022-11-07T20:29:35.657Z,9.39
2022-11-07T20:31:39.958Z,5.98
2022-11-07T20:33:43.132Z,9.38
2022-11-07T20:35:45.921Z,7.67
2022-11-07T20:37:48.644Z,7.25
2022-11-07T20:39:52.762Z,9.30
2022-11-07T20:41:55.552Z,6.83
2022-11-07T20:44:01.944Z,9.15
2022-11-07T20:46:06.393Z,7.07
2022-11-07T20:48:09.077Z,9.03
2022-11-07T20:50:11.826Z,0.24
2022-11-07T20:52:14.536Z,6.76
2022-11-07T20:54:17.656Z,7.04
2022-11-07T20:56:23.239Z,8.85
2022-11-07T20:58:26.012Z,7.88
2022-11-07T21:00:29.726Z,8.76
2022-11-07T21:02:32.499Z,8.22
2022-11-07T21:04:49.993Z,8.63
2022-11-07T21:06:58.285Z,8.50
2022-11-07T21:09:01.610Z,8.50
2022-11-07T21:11:04.460Z,7.95
2022-11-07T21:13:08.676Z,8.13
2022-11-07T21:15:12.235Z,8.43
2022-11-07T21:17:16.069Z,7.57
2022-11-07T21:19:18.826Z,5.64
2022-11-07T21:21:23.660Z,8.55
2022-11-07T21:23:26.893Z,7.94
2022-11-07T21:25:29.707Z,8.53
2022-11-07T21:27:36.130Z,8.40
2022-11-07T21:29:40.234Z,4.71
2022-11-07T21:31:43.032Z,8.46
2022-11-07T21:33:47.607Z,8.40
2022-11-07T21:35:50.329Z,7.60
2022-11-07T21:37:52.968Z,6.75
2022-11-07T21:39:55.622Z,8.25
2022-11-07T21:41:58.336Z,4.80
2022-11-07T21:44:00.999Z,8.30
2022-11-07T21:46:09.716Z,8.28
2022-11-07T21:48:12.449Z,8.29
2022-11-07T21:50:38.365Z,3.25
2022-11-07T21:52:40.193Z,8.21
2022-11-07T21:54:42.939Z,5.80
2022-11-07T21:56:45.712Z,8.23
2022-11-07T21:58:48.406Z,8.19
2022-11-07T22:00:51.206Z,8.20
2022-11-07T22:02:55.285Z,2.53
2022-11-07T22:04:58.049Z,8.28
2022-11-07T22:07:00.792Z,8.28
2022-11-07T22:09:04.667Z,8.27
2022-11-07T22:11:08.074Z,8.34
2022-11-07T22:13:10.759Z,8.40
2022-11-07T22:15:13.473Z,0.69
2022-11-07T22:17:16.261Z,8.29
2022-11-07T22:19:20.466Z,7.00
2022-11-07T22:21:24.170Z,8.09
2022-11-07T22:23:27.067Z,8.26
2022-11-07T22:25:29.805Z,8.27
2022-11-07T22:27:32.546Z,8.22
2022-11-07T22:29:35.354Z,8.21
2022-11-07T22:31:38.157Z,6.42
2022-11-07T22:33:41.255Z,5.34
2022-11-07T22:35:45.379Z,8.04
2022-11-07T22:37:48.111Z,8.03
2022-11-07T22:39:50.813Z,7.96
2022-11-07T22:41:53.577Z,7.92
2022-11-07T22:43:57.261Z,5.91
2022-11-07T22:46:03.331Z,7.20
2022-11-07T22:48:06.741Z,4.05
2022-11-07T22:50:10.658Z,6.68
2022-11-07T22:52:14.705Z,7.65
2022-11-07T22:54:17.444Z,7.57
2022-11-07T22:56:20.609Z,7.55
2022-11-07T22:58:23.352Z,6.71
2022-11-07T23:00:26.096Z,7.54
2022-11-07T23:02:28.886Z,7.48
2022-11-07T23:04:33.118Z,6.52
2022-11-07T23:06:36.252Z,7.43
2022-11-07T23:08:40.705Z,4.96
2022-11-07T23:10:43.496Z,7.13
2022-11-07T23:12:46.302Z,6.41
2022-11-07T23:14:49.286Z,7.37
2022-11-07T23:16:53.878Z,7.40
2022-11-07T23:18:58.156Z,7.36
2022-11-07T23:21:11.331Z,7.35
2022-11-07T23:23:14.062Z,7.33
2022-11-07T23:25:18.278Z,7.34
2022-11-07T23:27:21.077Z,4.76
2022-11-07T23:29:25.330Z,6.37
2022-11-07T23:31:28.380Z,4.42
2022-11-07T23:33:31.224Z,6.42
2022-11-07T23:35:33.964Z,7.16
2022-11-07T23:37:36.663Z,6.39
2022-11-07T23:39:39.447Z,6.81
2022-11-07T23:41:44.120Z,6.27
2022-11-07T23:43:51.308Z,7.16
2022-11-07T23:46:14.460Z,5.62
2022-11-07T23:48:34.910Z,6.21
2022-11-07T23:50:55.526Z,5.55
2022-11-07T23:52:58.200Z,5.74
2022-11-07T23:55:18.507Z,5.79
2022-11-07T23:57:22.567Z,7.14
2022-11-07T23:59:42.624Z,7.14
